Time;durP1;ratioP1;P1;durP2;ratioP2;P2;SDS_P1;SDS_P2;PMS_P1;PMS_P2;Temp;Humidity;BMP_temperature;BMP_pressure;BME280_temperature;BME280_humidity;BME280_pressure;Samples;Min_cycle;Max_cycle;Signal;HPM_P1;HPM_P2
2021/08/25 00:01:13;;;;;;;5.90;5.50;;;16.40;99.00;;;;;;5035315;28;20177;-66
2021/08/25 00:03:39;;;;;;;6.60;6.10;;;16.40;98.90;;;;;;5050791;28;20687;-67
2021/08/25 00:06:04;;;;;;;6.23;5.73;;;16.40;98.90;;;;;;5054988;28;20404;-67
2021/08/25 00:08:30;;;;;;;6.23;5.83;;;16.40;98.70;;;;;;5052463;28;20483;-72
2021/08/25 00:10:56;;;;;;;6.00;5.50;;;16.40;98.50;;;;;;5055646;28;20184;-67
2021/08/25 00:13:22;;;;;;;6.97;6.50;;;16.40;98.70;;;;;;5055043;28;20695;-66
2021/08/25 00:15:47;;;;;;;6.30;5.80;;;16.40;98.70;;;;;;5054681;28;20797;-67
2021/08/25 00:18:13;;;;;;;7.10;6.60;;;16.40;98.60;;;;;;5055181;28;20205;-67
2021/08/25 00:20:40;;;;;;;7.07;6.47;;;16.50;98.70;;;;;;5054763;28;20633;-67
2021/08/25 00:23:06;;;;;;;7.07;6.50;;;16.40;98.70;;;;;;5037358;28;20419;-67
2021/08/25 00:25:33;;;;;;;6.47;5.90;;;16.40;98.50;;;;;;5036562;28;20411;-71
2021/08/25 00:27:59;;;;;;;7.50;7.00;;;16.40;98.60;;;;;;5055001;28;20541;-66
2021/08/25 00:30:24;;;;;;;6.93;6.43;;;16.40;98.80;;;;;;5054889;28;20861;-66
2021/08/25 00:32:50;;;;;;;6.93;6.33;;;16.30;98.50;;;;;;5054333;28;20411;-66
2021/08/25 00:35:16;;;;;;;8.67;6.27;;;16.20;98.80;;;;;;5054819;28;20230;-67
2021/08/25 00:37:42;;;;;;;10.00;6.73;;;16.00;98.90;;;;;;5044378;28;20177;-67
2021/08/25 00:40:09;;;;;;;7.77;7.07;;;15.90;99.40;;;;;;5035140;28;20419;-67
2021/08/25 00:42:35;;;;;;;7.37;6.47;;;15.80;99.70;;;;;;5033164;28;20412;-67
2021/08/25 00:45:05;;;;;;;7.40;6.90;;;15.70;99.90;;;;;;5035085;28;20425;-67
2021/08/25 00:47:45;;;;;;;6.57;6.07;;;15.70;99.90;;;;;;5034587;28;20274;-72
2021/08/25 00:50:13;;;;;;;6.03;5.63;;;15.80;99.90;;;;;;5035155;28;20490;-67
2021/08/25 00:52:40;;;;;;;6.77;6.27;;;15.80;99.90;;;;;;5016142;28;20886;-67
2021/08/25 00:55:06;;;;;;;7.40;6.80;;;15.80;99.90;;;;;;5034613;28;20407;-67
2021/08/25 00:57:36;;;;;;;6.30;5.80;;;15.80;99.80;;;;;;5033926;28;20423;-72
2021/08/25 01:00:06;;;;;;;6.70;6.20;;;15.80;99.80;;;;;;5034708;28;20420;-67
2021/08/25 01:02:44;;;;;;;6.50;5.93;;;15.90;99.80;;;;;;5034429;28;20412;-72
2021/08/25 01:05:10;;;;;;;7.43;6.83;;;15.90;99.60;;;;;;5034882;28;20445;-67
2021/08/25 01:07:42;;;;;;;6.30;5.70;;;15.90;99.30;;;;;;5034221;28;20503;-67
2021/08/25 01:10:29;;;;;;;6.83;6.23;;;15.90;99.40;;;;;;5034576;28;20443;-67
2021/08/25 01:13:06;;;;;;;6.17;5.67;;;15.90;99.50;;;;;;5033871;28;20419;-67
2021/08/25 01:15:34;;;;;;;6.70;6.20;;;15.90;99.40;;;;;;5033863;28;20420;-73
2021/08/25 01:18:05;;;;;;;6.63;6.13;;;15.90;99.20;;;;;;5017080;28;20428;-67
2021/08/25 01:20:32;;;;;;;6.63;6.13;;;15.80;99.20;;;;;;5034321;28;20416;-72
2021/08/25 01:22:59;;;;;;;5.50;5.07;;;15.80;99.10;;;;;;5016159;28;20419;-67
2021/08/25 01:25:26;;;;;;;6.00;5.60;;;15.80;99.00;;;;;;5042419;28;20427;-67
2021/08/25 01:28:04;;;;;;;6.00;5.60;;;15.90;99.00;;;;;;5051431;28;20415;-67
2021/08/25 01:30:32;;;;;;;6.00;5.60;;;15.90;99.10;;;;;;5036808;28;20417;-67
2021/08/25 01:32:59;;;;;;;5.90;5.40;;;15.80;99.20;;;;;;5053488;28;20406;-67
2021/08/25 01:35:40;;;;;;;6.40;5.80;;;15.90;99.30;;;;;;5035977;28;20416;-67
2021/08/25 01:38:07;;;;;;;5.73;5.33;;;15.90;99.00;;;;;;5054052;28;20465;-67
2021/08/25 01:40:35;;;;;;;6.80;6.20;;;15.80;98.70;;;;;;5053359;28;20431;-71
2021/08/25 01:43:07;;;;;;;5.57;5.17;;;15.80;98.60;;;;;;5053763;28;20895;-67
2021/08/25 01:45:33;;;;;;;5.80;5.40;;;15.80;98.70;;;;;;5053334;28;20770;-71
2021/08/25 01:47:59;;;;;;;5.43;5.03;;;15.80;98.50;;;;;;5049681;28;20459;-67
2021/08/25 01:50:25;;;;;;;5.50;5.00;;;15.80;98.50;;;;;;5016258;28;21026;-67
2021/08/25 01:52:50;;;;;;;5.03;4.73;;;15.80;98.30;;;;;;5006640;28;20184;-67
2021/08/25 01:55:17;;;;;;;5.70;5.30;;;15.70;98.40;;;;;;5053256;28;20426;-67
2021/08/25 01:57:43;;;;;;;5.30;4.97;;;15.70;98.50;;;;;;5035122;28;20179;-67
2021/08/25 02:00:09;;;;;;;7.43;5.50;;;15.70;98.70;;;;;;5035760;28;20460;-67
2021/08/25 02:02:35;;;;;;;6.30;5.70;;;15.70;98.80;;;;;;5046359;28;20772;-72
2021/08/25 02:05:00;;;;;;;6.20;5.60;;;15.70;98.50;;;;;;5015362;28;20426;-67
2021/08/25 02:07:26;;;;;;;5.53;5.03;;;15.70;98.90;;;;;;5033221;28;20186;-67
2021/08/25 02:09:52;;;;;;;5.00;4.67;;;15.60;98.80;;;;;;5032623;28;20211;-67
2021/08/25 02:12:17;;;;;;;5.73;5.10;;;15.60;98.50;;;;;;5033674;28;20186;-67
2021/08/25 02:14:43;;;;;;;6.17;5.67;;;15.70;98.30;;;;;;5014743;28;20176;-67
2021/08/25 02:17:09;;;;;;;6.00;5.50;;;15.60;98.40;;;;;;5015708;28;20182;-67
2021/08/25 02:19:35;;;;;;;5.97;5.37;;;15.60;98.20;;;;;;5033379;28;20183;-73
2021/08/25 02:22:00;;;;;;;5.30;4.90;;;15.60;98.00;;;;;;5032720;28;20505;-67
2021/08/25 02:24:26;;;;;;;5.80;5.00;;;15.60;98.40;;;;;;5033134;28;20188;-67
2021/08/25 02:26:52;;;;;;;6.27;5.30;;;15.50;98.70;;;;;;5032207;28;20177;-67
2021/08/25 02:29:18;;;;;;;5.23;4.87;;;15.60;98.70;;;;;;5035874;28;20243;-67
2021/08/25 02:31:43;;;;;;;8.83;6.13;;;15.50;98.40;;;;;;5051892;28;20217;-67
2021/08/25 02:34:09;;;;;;;6.03;5.63;;;15.50;98.30;;;;;;5052404;28;20184;-67
2021/08/25 02:36:35;;;;;;;5.40;4.97;;;15.50;98.60;;;;;;5052597;28;20184;-67
2021/08/25 02:39:01;;;;;;;6.83;6.23;;;15.50;98.60;;;;;;5051086;28;20180;-67
2021/08/25 02:41:27;;;;;;;6.17;5.67;;;15.50;98.50;;;;;;5053037;28;20415;-67
2021/08/25 02:43:53;;;;;;;6.10;5.70;;;15.40;98.30;;;;;;5051860;28;20437;-67
2021/08/25 02:46:20;;;;;;;6.33;5.93;;;15.40;98.20;;;;;;5050058;28;20191;-67
2021/08/25 02:48:46;;;;;;;5.87;5.47;;;15.40;98.00;;;;;;5031601;28;20289;-67
2021/08/25 02:51:12;;;;;;;6.17;5.83;;;15.40;98.10;;;;;;5032618;28;20428;-67
2021/08/25 02:53:38;;;;;;;6.67;6.17;;;15.40;98.10;;;;;;5032709;28;20415;-72
2021/08/25 02:56:03;;;;;;;6.20;5.70;;;15.30;98.00;;;;;;5031820;28;20886;-68
2021/08/25 02:58:29;;;;;;;6.97;6.47;;;15.30;98.10;;;;;;5031821;28;20187;-67
2021/08/25 03:00:55;;;;;;;6.57;6.10;;;15.20;97.90;;;;;;5031813;28;20418;-67
2021/08/25 03:03:21;;;;;;;6.30;5.90;;;15.20;98.00;;;;;;5014352;28;20181;-67
2021/08/25 03:05:47;;;;;;;6.67;6.20;;;15.20;98.10;;;;;;5031568;28;20185;-69
2021/08/25 03:08:13;;;;;;;5.63;5.30;;;15.10;98.40;;;;;;5049655;28;20228;-66
2021/08/25 03:10:39;;;;;;;6.10;5.60;;;15.00;99.00;;;;;;5034174;28;20413;-67
2021/08/25 03:13:05;;;;;;;5.80;5.40;;;15.10;99.30;;;;;;5034479;28;20171;-66
2021/08/25 03:15:31;;;;;;;6.10;5.60;;;15.10;99.10;;;;;;5033104;28;20818;-66
2021/08/25 03:17:57;;;;;;;6.40;5.90;;;15.10;99.00;;;;;;5031355;28;20509;-66
2021/08/25 03:20:22;;;;;;;6.57;5.60;;;15.10;99.00;;;;;;5031755;28;20274;-66
2021/08/25 03:22:48;;;;;;;7.07;5.80;;;15.10;99.10;;;;;;5031469;28;20177;-66
2021/08/25 03:25:14;;;;;;;6.57;5.97;;;15.10;98.70;;;;;;5048442;28;20187;-66
2021/08/25 03:27:40;;;;;;;6.23;5.73;;;15.10;98.80;;;;;;5051753;28;20179;-70
2021/08/25 03:30:06;;;;;;;7.20;6.60;;;15.10;98.90;;;;;;5051683;28;20945;-66
2021/08/25 03:32:32;;;;;;;6.17;5.67;;;15.10;98.80;;;;;;5051788;28;20187;-66
2021/08/25 03:34:58;;;;;;;6.60;6.20;;;15.10;99.00;;;;;;5033063;28;20416;-66
2021/08/25 03:37:23;;;;;;;6.53;5.93;;;15.10;98.90;;;;;;5036111;28;20180;-66
2021/08/25 03:39:49;;;;;;;8.40;6.47;;;15.10;99.10;;;;;;5032550;28;20619;-66
2021/08/25 03:42:15;;;;;;;6.23;5.83;;;15.10;99.00;;;;;;5036110;28;20180;-66
2021/08/25 03:44:41;;;;;;;7.20;6.60;;;15.00;98.90;;;;;;5017352;28;20189;-66
2021/08/25 03:47:08;;;;;;;6.47;5.87;;;15.10;98.60;;;;;;5036809;28;20415;-66
2021/08/25 03:49:34;;;;;;;6.03;5.70;;;15.00;98.20;;;;;;5035939;28;20228;-66
2021/08/25 03:52:00;;;;;;;6.80;6.40;;;15.00;98.40;;;;;;5035592;28;20672;-66
2021/08/25 03:54:27;;;;;;;7.07;6.67;;;14.90;98.60;;;;;;5049912;28;20417;-66
2021/08/25 03:56:56;;;;;;;9.57;7.00;;;14.90;98.50;;;;;;5055728;28;20171;-66
2021/08/25 03:59:22;;;;;;;7.10;6.60;;;14.80;98.60;;;;;;5056286;28;20482;-66
2021/08/25 04:01:49;;;;;;;6.80;6.10;;;14.80;98.60;;;;;;5055623;28;20413;-66
2021/08/25 04:04:16;;;;;;;8.20;7.60;;;14.80;98.70;;;;;;5056143;28;20431;-66
2021/08/25 04:06:42;;;;;;;8.30;7.70;;;14.80;98.70;;;;;;5040541;28;20826;-67
2021/08/25 04:09:07;;;;;;;7.60;6.90;;;14.80;98.90;;;;;;5036216;28;20610;-66
2021/08/25 04:11:34;;;;;;;7.23;6.63;;;14.80;99.00;;;;;;5036275;28;20615;-66
2021/08/25 04:14:00;;;;;;;6.70;6.20;;;14.80;99.70;;;;;;5051798;28;20182;-66
2021/08/25 04:16:27;;;;;;;6.23;5.83;;;14.90;99.50;;;;;;5055694;28;20416;-66
2021/08/25 04:18:53;;;;;;;6.13;5.73;;;14.90;98.70;;;;;;5055364;28;20933;-66
2021/08/25 04:21:19;;;;;;;6.00;5.60;;;14.80;98.50;;;;;;5056078;28;20413;-66
2021/08/25 04:23:45;;;;;;;5.73;5.30;;;14.90;98.60;;;;;;5054630;28;20614;-66
2021/08/25 04:26:11;;;;;;;7.43;6.93;;;14.80;98.70;;;;;;5055494;28;20178;-66
2021/08/25 04:28:37;;;;;;;6.50;5.80;;;14.80;98.50;;;;;;5055684;28;20500;-66
2021/08/25 04:31:03;;;;;;;6.50;6.10;;;14.80;98.20;;;;;;5055116;28;20535;-66
2021/08/25 04:33:28;;;;;;;6.70;6.20;;;14.80;98.00;;;;;;5055691;28;20271;-66
2021/08/25 04:35:54;;;;;;;7.03;6.43;;;14.80;98.20;;;;;;5038321;28;20419;-66
2021/08/25 04:38:20;;;;;;;6.40;5.90;;;14.80;98.20;;;;;;5035693;28;20186;-66
2021/08/25 04:40:46;;;;;;;6.67;6.17;;;14.80;98.30;;;;;;5034957;28;20190;-66
2021/08/25 04:43:11;;;;;;;5.50;5.20;;;14.80;98.30;;;;;;5053263;28;20185;-66
2021/08/25 04:45:40;;;;;;;6.93;6.40;;;14.80;98.20;;;;;;5051868;28;20183;-66
2021/08/25 04:48:06;;;;;;;9.13;8.43;;;14.70;98.10;;;;;;5021972;28;20252;-66
2021/08/25 04:50:32;;;;;;;5.90;5.50;;;14.70;98.10;;;;;;5054829;28;20424;-66
2021/08/25 04:52:58;;;;;;;6.77;6.27;;;14.80;98.50;;;;;;5071008;28;20430;-66
2021/08/25 04:55:23;;;;;;;6.57;6.10;;;14.80;98.60;;;;;;5075302;28;20411;-66
2021/08/25 04:57:49;;;;;;;6.10;5.70;;;14.80;98.70;;;;;;5073352;28;20424;-66
2021/08/25 05:00:15;;;;;;;5.90;5.50;;;14.80;98.60;;;;;;5075121;28;20181;-66
2021/08/25 05:02:41;;;;;;;6.90;6.40;;;14.80;98.60;;;;;;5075108;28;20498;-66
2021/08/25 05:05:07;;;;;;;6.40;5.90;;;14.80;98.80;;;;;;5055484;28;20447;-66
2021/08/25 05:07:33;;;;;;;8.23;7.43;;;14.80;98.80;;;;;;5055013;28;20433;-66
2021/08/25 05:09:59;;;;;;;10.03;9.20;;;14.80;98.80;;;;;;5054408;28;20491;-66
2021/08/25 05:12:24;;;;;;;9.00;8.40;;;14.80;98.90;;;;;;5054885;28;20180;-66
2021/08/25 05:14:50;;;;;;;6.57;5.80;;;14.90;98.90;;;;;;5053861;28;20564;-67
2021/08/25 05:17:16;;;;;;;8.33;7.73;;;14.80;98.80;;;;;;5054815;28;20200;-66
2021/08/25 05:19:42;;;;;;;8.80;8.20;;;14.80;98.60;;;;;;5054433;28;20189;-66
2021/08/25 05:22:09;;;;;;;6.40;6.00;;;14.70;98.90;;;;;;5054157;28;20177;-66
2021/08/25 05:24:36;;;;;;;6.13;5.63;;;14.70;99.20;;;;;;5073795;28;20208;-66
2021/08/25 05:27:02;;;;;;;7.00;6.43;;;14.70;99.40;;;;;;5072234;28;20419;-66
2021/08/25 05:29:27;;;;;;;7.23;6.63;;;14.70;99.60;;;;;;5074383;28;20547;-66
2021/08/25 05:31:53;;;;;;;7.50;6.57;;;14.70;99.50;;;;;;5059879;28;20563;-66
2021/08/25 05:34:19;;;;;;;6.83;6.20;;;14.80;99.60;;;;;;5074160;28;20684;-66
2021/08/25 05:36:44;;;;;;;7.40;6.80;;;14.80;99.50;;;;;;5066919;28;20178;-66
2021/08/25 05:39:10;;;;;;;6.63;6.10;;;14.80;99.40;;;;;;5061578;28;20184;-66
2021/08/25 05:41:36;;;;;;;7.50;6.80;;;14.80;99.40;;;;;;5074111;28;20185;-66
2021/08/25 05:44:03;;;;;;;6.90;6.23;;;14.80;99.50;;;;;;5070019;28;20171;-66
2021/08/25 05:46:31;;;;;;;9.83;9.03;;;14.80;99.40;;;;;;5072252;28;20227;-66
2021/08/25 05:48:57;;;;;;;6.60;5.90;;;14.90;99.40;;;;;;5050585;28;20476;-65
2021/08/25 05:51:22;;;;;;;8.70;8.10;;;14.90;99.50;;;;;;5054041;28;20420;-66
2021/08/25 05:53:51;;;;;;;8.07;7.37;;;15.00;99.60;;;;;;5037924;28;20421;-67
2021/08/25 05:56:17;;;;;;;6.03;5.47;;;15.00;99.70;;;;;;5034048;28;20172;-66
2021/08/25 05:58:42;;;;;;;9.23;8.30;;;15.00;99.80;;;;;;5034462;28;20424;-66
2021/08/25 06:01:11;;;;;;;12.83;11.47;;;15.10;99.80;;;;;;5033526;28;20195;-66
2021/08/25 06:03:37;;;;;;;8.03;7.33;;;15.10;99.70;;;;;;5033062;28;20160;-66
2021/08/25 06:06:03;;;;;;;7.80;7.20;;;15.30;99.70;;;;;;5033370;28;20544;-66
2021/08/25 06:08:28;;;;;;;7.00;6.50;;;15.20;99.50;;;;;;5033695;28;20215;-66
2021/08/25 06:10:54;;;;;;;7.80;7.20;;;15.30;99.30;;;;;;5036454;28;20583;-67
2021/08/25 06:13:20;;;;;;;8.00;7.30;;;15.30;98.90;;;;;;5043936;28;20186;-67
2021/08/25 06:15:45;;;;;;;10.90;9.80;;;15.30;98.90;;;;;;5049337;28;20194;-66
2021/08/25 06:18:11;;;;;;;6.50;6.00;;;15.40;99.00;;;;;;5050505;28;20269;-67
2021/08/25 06:20:37;;;;;;;7.57;6.70;;;15.40;99.00;;;;;;5034787;28;20259;-66
2021/08/25 06:23:02;;;;;;;9.60;8.80;;;15.40;98.80;;;;;;5043317;28;20191;-67
2021/08/25 06:25:28;;;;;;;9.37;8.27;;;15.40;98.80;;;;;;5033147;28;20179;-66
2021/08/25 06:27:54;;;;;;;7.97;7.27;;;15.50;99.60;;;;;;5039214;28;20225;-68
2021/08/25 06:30:20;;;;;;;7.27;6.67;;;15.60;99.90;;;;;;5018211;28;20188;-67
2021/08/25 06:32:46;;;;;;;8.13;7.33;;;15.60;99.90;;;;;;5032438;28;20427;-66
2021/08/25 06:35:12;;;;;;;9.67;8.87;;;15.70;99.90;;;;;;5032205;28;21023;-68
2021/08/25 06:37:37;;;;;;;8.03;7.23;;;15.70;99.30;;;;;;5037827;28;20644;-66
2021/08/25 06:40:04;;;;;;;10.00;9.07;;;15.70;99.30;;;;;;5042375;28;20181;-67
2021/08/25 06:42:30;;;;;;;7.40;6.80;;;15.70;99.10;;;;;;5044120;28;20184;-66
2021/08/25 06:44:55;;;;;;;7.90;7.10;;;15.70;99.20;;;;;;5038692;28;20523;-66
2021/08/25 06:47:21;;;;;;;7.17;6.47;;;15.70;99.20;;;;;;5050094;28;20256;-67
2021/08/25 06:49:47;;;;;;;8.27;7.50;;;15.70;99.30;;;;;;5034346;28;20581;-67
2021/08/25 06:52:13;;;;;;;8.10;7.50;;;15.80;99.80;;;;;;5032434;28;20242;-66
2021/08/25 06:54:39;;;;;;;9.23;7.30;;;15.80;99.80;;;;;;5034710;28;20452;-67
2021/08/25 06:57:05;;;;;;;7.07;6.43;;;15.80;99.90;;;;;;5040426;28;20185;-67
2021/08/25 06:59:31;;;;;;;7.77;7.07;;;15.90;99.90;;;;;;5036385;28;20235;-67
2021/08/25 07:01:56;;;;;;;9.60;8.80;;;15.90;99.90;;;;;;5031364;28;20467;-67
2021/08/25 07:04:22;;;;;;;7.90;7.10;;;15.90;99.90;;;;;;5043204;28;20204;-66
2021/08/25 07:06:48;;;;;;;7.30;6.60;;;16.00;99.90;;;;;;5021507;28;20571;-66
2021/08/25 07:09:13;;;;;;;8.43;7.67;;;16.00;99.90;;;;;;5041692;28;20229;-67
2021/08/25 07:11:41;;;;;;;6.90;6.20;;;16.00;99.90;;;;;;5041153;28;20188;-66
2021/08/25 07:14:07;;;;;;;8.00;6.73;;;16.10;99.90;;;;;;5034738;28;20191;-66
2021/08/25 07:16:34;;;;;;;6.90;6.30;;;16.10;99.90;;;;;;5041207;28;20423;-67
2021/08/25 07:19:04;;;;;;;7.83;6.60;;;16.10;99.90;;;;;;5042363;28;20187;-67
2021/08/25 07:21:30;;;;;;;8.17;7.40;;;16.20;99.90;;;;;;5036431;28;20429;-67
2021/08/25 07:23:56;;;;;;;6.77;6.10;;;16.20;99.90;;;;;;5044045;28;20428;-66
2021/08/25 07:26:21;;;;;;;7.20;6.60;;;16.30;99.90;;;;;;5043278;28;20908;-64
2021/08/25 07:28:47;;;;;;;8.20;7.50;;;16.40;99.90;;;;;;5051634;28;20295;-64
2021/08/25 07:31:14;;;;;;;6.43;5.83;;;16.50;99.90;;;;;;5051365;28;20185;-64
2021/08/25 07:33:40;;;;;;;8.07;7.30;;;16.60;99.90;;;;;;5039198;28;20182;-64
2021/08/25 07:36:08;;;;;;;7.53;6.83;;;16.60;99.90;;;;;;5035634;28;20574;-64
2021/08/25 07:38:34;;;;;;;8.93;8.23;;;16.70;99.80;;;;;;5039945;28;20431;-64
2021/08/25 07:41:00;;;;;;;6.90;6.30;;;16.80;99.80;;;;;;5028251;28;20790;-64
2021/08/25 07:43:26;;;;;;;7.50;7.00;;;16.90;99.90;;;;;;5032358;28;20189;-63
2021/08/25 07:45:52;;;;;;;7.00;6.30;;;16.90;99.70;;;;;;5039981;28;20424;-63
2021/08/25 07:48:18;;;;;;;10.07;9.07;;;17.00;99.50;;;;;;5033847;28;20541;-64
2021/08/25 07:50:44;;;;;;;10.23;9.13;;;17.10;99.50;;;;;;5046830;28;20428;-64
2021/08/25 07:53:10;;;;;;;9.73;8.67;;;17.20;99.20;;;;;;5048261;28;20412;-65
2021/08/25 07:55:35;;;;;;;12.50;11.00;;;17.30;98.60;;;;;;5031856;28;20548;-63
2021/08/25 07:58:01;;;;;;;9.97;8.97;;;17.40;99.10;;;;;;5031632;28;20908;-64
2021/08/25 08:00:27;;;;;;;10.40;9.40;;;17.50;99.10;;;;;;5042806;28;20182;-64
2021/08/25 08:02:52;;;;;;;10.83;9.80;;;17.60;98.70;;;;;;5047938;28;20189;-64
2021/08/25 08:05:19;;;;;;;12.07;10.80;;;17.70;99.10;;;;;;5031719;28;20171;-63
2021/08/25 08:07:45;;;;;;;12.00;10.03;;;17.80;99.30;;;;;;5035808;28;20193;-64
2021/08/25 08:10:12;;;;;;;15.43;11.80;;;17.80;99.00;;;;;;5035349;28;20456;-64
2021/08/25 08:12:37;;;;;;;14.43;13.03;;;17.90;98.60;;;;;;5051637;28;20527;-63
2021/08/25 08:15:10;;;;;;;13.23;10.30;;;18.00;98.00;;;;;;5051055;28;20952;-64
2021/08/25 08:17:36;;;;;;;11.60;9.70;;;18.10;98.40;;;;;;5051851;28;20209;-64
2021/08/25 08:20:03;;;;;;;11.67;9.80;;;18.20;98.90;;;;;;5051717;28;20408;-64
2021/08/25 08:22:29;;;;;;;13.80;10.97;;;18.40;99.20;;;;;;5052104;28;20412;-64
2021/08/25 08:24:54;;;;;;;13.67;11.93;;;18.50;98.50;;;;;;5051962;28;20462;-64
2021/08/25 08:27:20;;;;;;;14.03;12.63;;;18.60;98.50;;;;;;5054859;28;20174;-64
2021/08/25 08:29:46;;;;;;;14.40;13.13;;;18.70;98.30;;;;;;5055732;28;20354;-63
2021/08/25 08:32:12;;;;;;;14.70;13.17;;;18.90;98.10;;;;;;5055150;28;20174;-64
2021/08/25 08:34:38;;;;;;;14.10;12.77;;;19.00;97.60;;;;;;5055649;28;20408;-64
2021/08/25 08:37:04;;;;;;;14.67;13.23;;;19.10;98.70;;;;;;5055080;28;20166;-64
2021/08/25 08:39:30;;;;;;;12.83;11.60;;;19.20;98.40;;;;;;5055668;28;20409;-64
2021/08/25 08:41:55;;;;;;;12.97;10.53;;;19.30;97.50;;;;;;5055550;28;20201;-64
2021/08/25 08:44:24;;;;;;;11.70;10.40;;;19.40;97.00;;;;;;5054846;28;20439;-64
2021/08/25 08:46:50;;;;;;;11.73;9.47;;;19.50;96.50;;;;;;5055393;28;20188;-63
2021/08/25 08:49:16;;;;;;;11.90;8.57;;;19.60;96.90;;;;;;5054294;28;20464;-64
2021/08/25 08:51:43;;;;;;;9.73;8.93;;;19.70;96.70;;;;;;5055015;28;20178;-64
2021/08/25 08:54:09;;;;;;;9.63;8.73;;;19.70;97.80;;;;;;5054394;28;20416;-64
2021/08/25 08:56:35;;;;;;;11.60;7.80;;;19.80;97.60;;;;;;5055407;28;20408;-64
2021/08/25 08:59:02;;;;;;;8.50;7.80;;;20.00;97.50;;;;;;5054311;28;20486;-64
2021/08/25 09:01:29;;;;;;;9.13;8.43;;;20.00;96.90;;;;;;5055147;28;20205;-64
2021/08/25 09:03:55;;;;;;;8.03;7.33;;;20.10;95.50;;;;;;5055114;28;20400;-63
2021/08/25 09:06:20;;;;;;;9.03;8.33;;;20.20;95.90;;;;;;5054031;28;20485;-64
2021/08/25 09:08:46;;;;;;;8.30;7.40;;;20.30;96.10;;;;;;5054992;28;20201;-63
2021/08/25 09:11:17;;;;;;;7.43;6.60;;;20.40;96.30;;;;;;5054668;28;20205;-64
2021/08/25 09:13:48;;;;;;;10.10;7.67;;;20.50;96.20;;;;;;5037611;28;20606;-64
2021/08/25 09:16:32;;;;;;;7.13;6.43;;;20.60;97.00;;;;;;5036696;28;20492;-63
2021/08/25 09:19:14;;;;;;;6.00;5.50;;;20.80;94.70;;;;;;5054954;28;20526;-63
2021/08/25 09:21:44;;;;;;;7.27;6.03;;;20.90;94.90;;;;;;5054790;28;20901;-64
2021/08/25 09:24:11;;;;;;;6.87;6.27;;;21.00;95.30;;;;;;5054424;28;20423;-64
2021/08/25 09:27:08;;;;;;;7.80;6.70;;;21.10;95.00;;;;;;5054670;28;20408;-64
2021/08/25 09:29:37;;;;;;;8.03;7.20;;;21.40;95.00;;;;;;5054672;28;20460;-64
2021/08/25 09:32:03;;;;;;;6.57;5.87;;;21.50;94.70;;;;;;5053990;28;20409;-64
2021/08/25 09:34:31;;;;;;;7.43;6.83;;;21.70;92.70;;;;;;5054496;28;20416;-64
2021/08/25 09:37:11;;;;;;;5.20;4.70;;;21.80;90.70;;;;;;5053505;28;20408;-64
2021/08/25 09:39:49;;;;;;;5.27;4.80;;;21.90;90.20;;;;;;5054409;28;20431;-64
2021/08/25 09:42:18;;;;;;;6.50;5.90;;;21.90;89.60;;;;;;5053824;28;20419;-64
2021/08/25 09:44:45;;;;;;;7.43;6.60;;;22.00;85.30;;;;;;5054936;28;20413;-64
2021/08/25 09:47:11;;;;;;;4.90;4.60;;;22.00;86.20;;;;;;5053644;28;20412;-64
2021/08/25 09:49:36;;;;;;;4.80;4.13;;;22.20;89.70;;;;;;5054209;28;20476;-64
2021/08/25 09:52:03;;;;;;;4.93;4.43;;;22.30;87.30;;;;;;5053593;28;20448;-64
2021/08/25 09:54:29;;;;;;;6.63;4.53;;;22.30;83.70;;;;;;5054173;28;20412;-64
2021/08/25 09:56:54;;;;;;;7.10;6.50;;;22.40;84.60;;;;;;5054204;28;20454;-64
2021/08/25 09:59:21;;;;;;;5.20;4.70;;;22.40;86.30;;;;;;5053505;28;20232;-64
2021/08/25 10:01:49;;;;;;;7.13;6.53;;;22.40;86.50;;;;;;5054083;28;20227;-64
2021/08/25 10:04:16;;;;;;;5.27;4.77;;;22.40;87.70;;;;;;5035420;28;20431;-64
2021/08/25 10:06:44;;;;;;;5.83;5.40;;;22.50;87.30;;;;;;5053702;28;20881;-64
2021/08/25 10:09:10;;;;;;;5.60;5.10;;;22.60;87.70;;;;;;5053360;28;20514;-64
2021/08/25 10:11:39;;;;;;;4.70;4.30;;;22.80;88.00;;;;;;5053530;28;20903;-64
2021/08/25 10:14:10;;;;;;;5.30;4.80;;;23.00;87.40;;;;;;5053102;28;20411;-64
2021/08/25 10:16:40;;;;;;;5.80;5.33;;;23.20;81.70;;;;;;5053700;28;20470;-64
2021/08/25 10:19:39;;;;;;;6.07;5.57;;;23.40;83.70;;;;;;5052808;28;20420;-64
2021/08/25 10:22:14;;;;;;;5.40;4.90;;;23.60;82.20;;;;;;5053063;28;20799;-64
2021/08/25 10:25:02;;;;;;;8.80;6.20;;;23.80;82.00;;;;;;5053363;28;20412;-64
2021/08/25 10:27:30;;;;;;;5.73;5.23;;;24.00;84.20;;;;;;5053569;28;20396;-64
2021/08/25 10:30:02;;;;;;;5.77;5.27;;;24.20;83.70;;;;;;5053114;28;20827;-64
2021/08/25 10:32:29;;;;;;;6.83;6.33;;;24.30;79.90;;;;;;5052788;28;20413;-64
2021/08/25 10:35:13;;;;;;;8.73;7.80;;;24.30;70.60;;;;;;5053376;28;20411;-64
2021/08/25 10:37:40;;;;;;;5.97;5.57;;;24.30;75.00;;;;;;5053621;28;20413;-64
2021/08/25 10:40:08;;;;;;;6.70;6.10;;;24.50;73.00;;;;;;5052667;28;20911;-64
2021/08/25 10:42:54;;;;;;;5.30;4.90;;;24.60;74.20;;;;;;5053231;28;20400;-64
2021/08/25 10:45:39;;;;;;;7.37;6.77;;;24.70;74.90;;;;;;5052251;28;20772;-64
2021/08/25 10:48:09;;;;;;;9.50;8.80;;;24.90;76.90;;;;;;5052183;28;20453;-66
2021/08/25 10:50:50;;;;;;;5.90;5.50;;;25.00;76.80;;;;;;5052744;28;20432;-64
2021/08/25 10:53:27;;;;;;;7.03;6.43;;;25.20;78.00;;;;;;5052328;28;20828;-64
2021/08/25 10:56:12;;;;;;;8.60;5.77;;;25.30;72.50;;;;;;5053145;28;20891;-64
2021/08/25 10:59:00;;;;;;;4.83;4.37;;;25.40;71.90;;;;;;5035302;28;20435;-64
2021/08/25 11:01:34;;;;;;;6.73;6.20;;;25.40;70.40;;;;;;5052190;28;20473;-64
2021/08/25 11:04:13;;;;;;;6.33;5.73;;;25.50;72.70;;;;;;5052753;28;20388;-64
2021/08/25 11:06:42;;;;;;;7.53;6.83;;;25.60;72.00;;;;;;5034752;28;20399;-64
2021/08/25 11:09:15;;;;;;;5.70;5.20;;;25.60;71.00;;;;;;5051847;28;20501;-68
2021/08/25 11:11:47;;;;;;;7.43;6.83;;;25.70;71.20;;;;;;5052330;28;20432;-64
2021/08/25 11:14:30;;;;;;;6.70;5.67;;;25.80;69.00;;;;;;5051373;28;20440;-64
2021/08/25 11:17:08;;;;;;;10.67;9.77;;;25.90;72.20;;;;;;5052502;28;20412;-64
2021/08/25 11:19:37;;;;;;;6.60;5.50;;;26.00;71.00;;;;;;5052577;28;20517;-64
2021/08/25 11:22:03;;;;;;;5.90;5.50;;;26.10;68.60;;;;;;5052314;28;20414;-64
2021/08/25 11:24:39;;;;;;;6.70;6.10;;;26.20;68.80;;;;;;5052051;28;20474;-64
2021/08/25 11:27:26;;;;;;;6.23;5.73;;;26.20;66.70;;;;;;5034881;28;20428;-64
2021/08/25 11:30:12;;;;;;;5.97;5.47;;;26.30;65.50;;;;;;5052171;28;20459;-64
2021/08/25 11:32:55;;;;;;;5.33;4.83;;;26.30;65.50;;;;;;5034658;28;20487;-64
2021/08/25 11:35:47;;;;;;;6.00;5.50;;;26.40;67.20;;;;;;5051732;28;20397;-64
2021/08/25 11:38:15;;;;;;;7.30;6.60;;;26.50;65.60;;;;;;5047029;28;20420;-64
2021/08/25 11:40:45;;;;;;;6.03;5.53;;;26.60;63.50;;;;;;5052287;28;20411;-64
2021/08/25 11:43:16;;;;;;;6.53;5.93;;;26.70;59.90;;;;;;5051420;28;20767;-67
2021/08/25 11:45:44;;;;;;;6.10;5.57;;;26.70;60.10;;;;;;5052426;28;20417;-64
2021/08/25 11:48:10;;;;;;;6.73;6.10;;;26.80;64.60;;;;;;5051524;28;20512;-64
2021/08/25 11:50:39;;;;;;;9.00;8.40;;;26.80;64.90;;;;;;5052434;28;20515;-64
2021/08/25 11:53:22;;;;;;;7.87;7.33;;;26.90;64.10;;;;;;5052291;28;20558;-64
2021/08/25 11:55:54;;;;;;;6.70;6.20;;;26.90;65.40;;;;;;5052488;28;20844;-64
2021/08/25 11:58:28;;;;;;;6.00;5.50;;;27.00;62.50;;;;;;5051675;28;20407;-64
2021/08/25 12:00:55;;;;;;;5.77;5.33;;;27.00;61.60;;;;;;5035918;28;20396;-64
2021/08/25 12:03:36;;;;;;;6.27;4.90;;;26.90;63.20;;;;;;5055764;28;20759;-64
2021/08/25 12:06:02;;;;;;;5.90;5.50;;;27.00;66.50;;;;;;5056383;28;20411;-64
2021/08/25 12:08:44;;;;;;;5.67;5.27;;;27.00;64.10;;;;;;5055465;28;20480;-64
2021/08/25 12:11:15;;;;;;;5.70;5.17;;;27.00;65.70;;;;;;5055647;28;20161;-66
2021/08/25 12:13:46;;;;;;;7.40;6.73;;;27.10;66.10;;;;;;5056146;28;20414;-64
2021/08/25 12:16:27;;;;;;;6.00;5.50;;;27.00;63.90;;;;;;5055556;28;20391;-64
2021/08/25 12:18:55;;;;;;;8.10;7.50;;;27.10;64.70;;;;;;5055969;28;20426;-64
2021/08/25 12:21:26;;;;;;;8.90;8.20;;;27.10;64.80;;;;;;5055070;28;20412;-64
2021/08/25 12:24:10;;;;;;;6.43;5.93;;;27.10;65.50;;;;;;5056031;28;20396;-64
2021/08/25 12:26:39;;;;;;;7.00;6.40;;;27.10;60.70;;;;;;5055878;28;20404;-64
2021/08/25 12:29:06;;;;;;;5.80;5.30;;;27.10;57.70;;;;;;5055700;28;20935;-64
2021/08/25 12:31:34;;;;;;;6.23;5.63;;;27.00;59.90;;;;;;5054894;28;20935;-64
2021/08/25 12:34:11;;;;;;;4.67;4.27;;;27.00;63.60;;;;;;5055431;28;20415;-64
2021/08/25 12:36:39;;;;;;;5.30;4.80;;;27.00;62.80;;;;;;5055521;28;20416;-64
2021/08/25 12:39:10;;;;;;;8.20;7.50;;;26.90;64.80;;;;;;5055534;28;20417;-64
2021/08/25 12:41:38;;;;;;;7.10;6.40;;;26.90;62.60;;;;;;5054923;28;20416;-64
2021/08/25 12:44:05;;;;;;;7.90;7.27;;;26.90;60.80;;;;;;5055827;28;20416;-64
2021/08/25 12:46:46;;;;;;;6.73;6.10;;;26.90;60.40;;;;;;5054577;28;20461;-64
2021/08/25 12:49:12;;;;;;;7.30;6.80;;;26.80;61.40;;;;;;5054817;28;20947;-64
2021/08/25 12:51:38;;;;;;;6.30;5.80;;;26.70;63.50;;;;;;5055135;28;20404;-64